Time;durP1;ratioP1;P1;durP2;ratioP2;P2;SDS_P1;SDS_P2;PMS_P1;PMS_P2;Temp;Humidity;BMP_temperature;BMP_pressure;BME280_temperature;BME280_humidity;BME280_pressure;Samples;Min_cycle;Max_cycle;Signal;HPM_P1;HPM_P2
2021/06/12 00:02:11;;;;;;;48.88;44.08;;;;;;;15.80;100.00;101000.66;5012893;28;20041;-89
2021/06/12 00:04:53;;;;;;;52.65;48.03;;;;;;;15.75;100.00;101020.09;5013290;28;20046;-88
2021/06/12 00:07:20;;;;;;;50.97;46.25;;;;;;;15.66;100.00;101020.66;5011180;28;20111;-89
2021/06/12 00:09:50;;;;;;;70.18;64.47;;;;;;;15.62;100.00;101022.97;5013022;28;20518;-88
2021/06/12 00:12:17;;;;;;;51.20;46.65;;;;;;;15.55;100.00;101017.75;5012472;28;20046;-89
2021/06/12 00:14:44;;;;;;;54.80;50.00;;;;;;;14.83;100.00;101020.47;5004012;28;20054;-89
2021/06/12 00:17:13;;;;;;;51.83;47.13;;;;;;;15.04;100.00;101018.34;5012975;28;20124;-88
2021/06/12 00:19:41;;;;;;;53.75;48.33;;;;;;;15.28;100.00;101019.19;5009583;28;20049;-88
2021/06/12 00:22:09;;;;;;;52.05;47.55;;;;;;;15.35;100.00;101022.59;5012708;28;20512;-87
2021/06/12 00:24:38;;;;;;;55.53;50.53;;;;;;;15.39;100.00;101022.94;5013522;28;20054;-89
2021/06/12 00:27:15;;;;;;;53.38;48.58;;;;;;;15.43;100.00;101021.44;5012965;28;20050;-89
2021/06/12 00:29:41;;;;;;;53.55;48.40;;;;;;;15.26;100.00;101019.44;5005917;28;20475;-88
2021/06/12 00:32:09;;;;;;;54.13;49.22;;;;;;;15.07;100.00;101008.00;5010722;28;20061;-89
2021/06/12 00:34:38;;;;;;;55.33;50.50;;;;;;;15.32;100.00;101013.16;5012475;28;20045;-88
2021/06/12 00:37:06;;;;;;;58.83;53.88;;;;;;;15.41;100.00;101010.16;5012576;28;20125;-88
2021/06/12 00:39:35;;;;;;;76.82;70.78;;;;;;;14.97;100.00;101006.91;5012803;28;20104;-87
2021/06/12 00:42:05;;;;;;;53.67;48.88;;;;;;;15.09;100.00;101015.78;5012587;28;20060;-87
2021/06/12 00:44:33;;;;;;;51.67;46.65;;;;;;;14.82;100.00;101013.47;5012671;28;20062;-87
2021/06/12 00:46:59;;;;;;;43.45;39.33;;;;;;;14.74;100.00;101011.13;5012992;28;20042;-88
2021/06/12 01:01:30;;;;;;;53.72;49.13;;;;;;;14.75;100.00;101003.94;4777749;27;10001452;-78
2021/06/12 01:03:58;;;;;;;52.75;48.00;;;;;;;14.93;100.00;101005.75;5103820;28;20051;-77
2021/06/12 01:06:24;;;;;;;52.60;47.65;;;;;;;14.86;100.00;101003.97;5097161;28;20055;-78
2021/06/12 01:08:50;;;;;;;47.70;43.50;;;;;;;14.95;100.00;101001.81;5097284;28;20044;-77
2021/06/12 01:11:17;;;;;;;45.42;41.13;;;;;;;14.85;100.00;101006.84;5108265;28;20043;-78
2021/06/12 01:13:54;;;;;;;45.50;41.47;;;;;;;14.41;100.00;101012.34;5099549;28;20048;-78
2021/06/12 01:16:25;;;;;;;50.38;45.97;;;;;;;14.57;100.00;101010.13;5100029;28;20476;-76
2021/06/12 01:18:56;;;;;;;53.47;48.88;;;;;;;14.71;100.00;101016.13;5109146;28;20082;-78
2021/06/12 01:21:30;;;;;;;55.05;49.88;;;;;;;14.76;100.00;101013.56;5109057;28;20051;-76
2021/06/12 01:24:24;;;;;;;58.58;53.75;;;;;;;14.91;100.00;101011.31;5108564;27;20056;-76
2021/06/12 01:27:17;;;;;;;57.10;51.67;;;;;;;14.93;100.00;101009.22;5091447;28;20130;-75
2021/06/12 01:30:01;;;;;;;56.47;51.53;;;;;;;14.81;100.00;101014.53;5102354;28;20073;-77
2021/06/12 01:32:29;;;;;;;52.78;48.15;;;;;;;14.93;100.00;101013.75;5091306;28;20454;-76
2021/06/12 01:34:58;;;;;;;56.85;51.75;;;;;;;14.93;100.00;101011.09;5099077;28;20056;-76
2021/06/12 01:37:26;;;;;;;54.42;49.28;;;;;;;14.99;100.00;101002.16;5107435;28;20116;-79
2021/06/12 01:39:53;;;;;;;56.05;50.97;;;;;;;15.11;100.00;101011.84;5099650;28;20369;-77
2021/06/12 01:42:20;;;;;;;59.65;54.25;;;;;;;14.99;100.00;101016.34;5107388;28;20054;-76
2021/06/12 01:44:48;;;;;;;63.20;57.30;;;;;;;15.04;100.00;101026.38;5102104;28;20407;-77
2021/06/12 01:47:17;;;;;;;62.28;56.95;;;;;;;15.00;100.00;101019.81;5108202;28;20051;-75
2021/06/12 01:49:46;;;;;;;54.95;49.92;;;;;;;14.99;100.00;101007.50;5088685;28;20389;-77
2021/06/12 01:52:13;;;;;;;55.85;50.95;;;;;;;15.01;100.00;101016.13;5106567;28;20092;-77
2021/06/12 01:54:42;;;;;;;52.72;48.13;;;;;;;14.91;100.00;101015.84;5107564;28;20051;-80
2021/06/12 01:57:09;;;;;;;49.05;44.80;;;;;;;14.98;100.00;101019.25;5105419;28;20404;-77
2021/06/12 01:59:36;;;;;;;45.35;41.30;;;;;;;15.03;100.00;101017.50;5104097;28;20105;-78
2021/06/12 02:02:05;;;;;;;44.85;41.05;;;;;;;15.02;100.00;101015.06;5087160;28;20056;-76
2021/06/12 02:04:38;;;;;;;45.22;41.33;;;;;;;15.10;100.00;101018.25;5086086;28;20047;-78
2021/06/12 02:07:07;;;;;;;44.15;40.30;;;;;;;14.98;100.00;101019.25;5082430;28;20056;-77
2021/06/12 02:09:36;;;;;;;39.58;36.08;;;;;;;15.03;100.00;101020.19;5094178;28;20063;-78
2021/06/12 02:12:04;;;;;;;42.65;38.95;;;;;;;15.15;100.00;101016.72;5080735;28;20045;-78
2021/06/12 02:14:31;;;;;;;38.97;35.42;;;;;;;15.02;100.00;101020.41;5089247;28;20048;-77
2021/06/12 02:16:57;;;;;;;46.45;42.25;;;;;;;15.10;100.00;101020.91;5093656;28;20184;-77
2021/06/12 02:19:25;;;;;;;52.75;48.10;;;;;;;14.82;100.00;101010.78;5094532;28;20043;-76
2021/06/12 02:21:52;;;;;;;44.97;40.67;;;;;;;14.95;100.00;101019.69;5092049;28;20059;-77
2021/06/12 02:24:19;;;;;;;41.72;37.47;;;;;;;15.06;100.00;101018.91;5088045;28;20048;-78
2021/06/12 02:26:48;;;;;;;49.78;44.25;;;;;;;14.86;100.00;101016.53;5082173;28;20044;-78
2021/06/12 02:29:16;;;;;;;44.03;40.00;;;;;;;15.17;100.00;101025.34;5086613;28;20048;-75
2021/06/12 02:31:45;;;;;;;44.60;40.45;;;;;;;15.13;100.00;101019.66;5087408;28;20037;-78
2021/06/12 02:34:11;;;;;;;42.55;38.85;;;;;;;15.26;100.00;101021.31;5079724;28;20044;-77
2021/06/12 02:36:38;;;;;;;41.10;37.40;;;;;;;15.23;100.00;101021.75;5086616;28;20055;-78
2021/06/12 02:39:07;;;;;;;44.35;40.45;;;;;;;15.07;100.00;101021.38;5087069;28;20043;-77
2021/06/12 02:41:33;;;;;;;40.50;36.75;;;;;;;14.87;100.00;101018.97;5091457;28;20060;-78
2021/06/12 02:44:00;;;;;;;41.55;37.20;;;;;;;15.11;100.00;101024.41;5091808;28;20467;-78
2021/06/12 02:46:29;;;;;;;41.25;37.65;;;;;;;15.18;100.00;101024.31;5086615;28;20416;-76
2021/06/12 02:49:00;;;;;;;42.00;38.13;;;;;;;15.25;100.00;101025.00;5081868;28;20103;-78
2021/06/12 02:51:28;;;;;;;40.83;37.33;;;;;;;15.26;100.00;101023.97;5087039;28;20467;-75
2021/06/12 02:53:58;;;;;;;39.80;36.20;;;;;;;15.21;100.00;101023.84;5086992;28;20048;-78
2021/06/12 02:56:27;;;;;;;42.63;38.67;;;;;;;15.22;100.00;101018.28;5086457;28;20040;-76
2021/06/12 02:59:00;;;;;;;42.65;38.95;;;;;;;14.97;100.00;101023.75;5091583;28;20055;-76
2021/06/12 03:01:28;;;;;;;45.58;41.55;;;;;;;15.17;100.00;101023.50;5088093;28;20400;-77
2021/06/12 03:03:56;;;;;;;47.97;43.92;;;;;;;15.34;100.00;101021.78;5084929;28;20066;-77
2021/06/12 03:06:24;;;;;;;42.13;38.40;;;;;;;15.32;100.00;101028.41;5087017;28;20052;-78
2021/06/12 03:08:52;;;;;;;42.15;38.38;;;;;;;15.34;100.00;101029.00;5087736;28;20056;-77
2021/06/12 03:11:21;;;;;;;41.47;37.88;;;;;;;15.34;100.00;101019.13;5086074;28;20048;-76
2021/06/12 03:13:51;;;;;;;42.80;38.70;;;;;;;15.00;100.00;101019.81;5090384;28;20040;-77
2021/06/12 03:16:18;;;;;;;43.47;39.58;;;;;;;15.16;100.00;101027.22;5091287;28;20059;-77
2021/06/12 03:18:46;;;;;;;45.63;41.63;;;;;;;15.30;100.00;101028.63;5093697;28;20064;-77
2021/06/12 03:21:15;;;;;;;43.95;40.03;;;;;;;15.05;100.00;101030.66;5086045;28;20044;-77
2021/06/12 03:23:43;;;;;;;42.80;38.97;;;;;;;15.20;100.00;101033.72;5086336;28;20044;-75
2021/06/12 03:26:10;;;;;;;45.33;41.28;;;;;;;15.29;100.00;101034.22;5082974;28;20048;-76
2021/06/12 03:28:38;;;;;;;46.30;42.28;;;;;;;15.34;100.00;101042.38;5091270;28;20548;-76
2021/06/12 03:31:06;;;;;;;44.58;40.58;;;;;;;15.54;100.00;101034.84;5086422;28;20044;-76
2021/06/12 03:33:33;;;;;;;43.35;39.42;;;;;;;15.49;100.00;101025.88;5091334;28;20051;-76
2021/06/12 03:36:00;;;;;;;43.30;39.70;;;;;;;15.68;100.00;101043.50;5091754;28;20127;-77
2021/06/12 03:38:28;;;;;;;41.40;37.72;;;;;;;15.64;100.00;101031.59;5080645;28;20048;-77
2021/06/12 03:40:55;;;;;;;40.72;37.20;;;;;;;15.75;100.00;101040.72;5082835;28;20123;-77
2021/06/12 03:43:22;;;;;;;44.30;40.47;;;;;;;15.76;100.00;101036.97;5083187;28;20052;-75
2021/06/12 03:45:51;;;;;;;42.47;38.80;;;;;;;15.68;100.00;101040.84;5083758;28;20551;-77
2021/06/12 03:48:21;;;;;;;42.88;39.17;;;;;;;15.57;100.00;101039.72;5085413;28;20052;-78
2021/06/12 03:50:48;;;;;;;41.90;38.20;;;;;;;15.69;100.00;101041.66;5221307;22;20044;-76
2021/06/12 03:53:15;;;;;;;42.40;38.53;;;;;;;15.70;100.00;101048.63;5086549;28;20075;-76
2021/06/12 03:55:41;;;;;;;43.58;39.75;;;;;;;15.71;100.00;101048.41;5088977;28;20100;-77
2021/06/12 03:58:08;;;;;;;44.45;40.75;;;;;;;15.92;100.00;101056.91;5086678;28;20400;-77
2021/06/12 04:00:35;;;;;;;44.17;40.45;;;;;;;15.96;100.00;101047.34;5089658;28;20047;-77
2021/06/12 04:03:01;;;;;;;42.40;38.80;;;;;;;15.90;100.00;101042.94;5080262;28;20048;-77
2021/06/12 04:05:29;;;;;;;45.63;41.72;;;;;;;16.09;100.00;101047.09;5083593;28;20495;-77
2021/06/12 04:07:56;;;;;;;47.80;43.85;;;;;;;16.29;100.00;101043.25;5085441;28;20117;-77
2021/06/12 04:10:22;;;;;;;43.67;40.05;;;;;;;16.28;100.00;101050.47;5088366;28;20040;-77
2021/06/12 04:12:48;;;;;;;47.70;43.63;;;;;;;16.17;100.00;101060.16;5085912;28;20055;-78
2021/06/12 04:15:15;;;;;;;48.60;44.50;;;;;;;16.19;100.00;101057.25;5085618;28;20048;-78
2021/06/12 04:17:44;;;;;;;45.17;41.47;;;;;;;16.24;100.00;101066.19;5083836;28;20044;-76
2021/06/12 04:20:11;;;;;;;45.55;41.97;;;;;;;16.30;100.00;101061.75;5073394;28;20048;-80
2021/06/12 04:22:39;;;;;;;44.17;40.80;;;;;;;16.37;100.00;101061.63;5086022;28;20040;-77
2021/06/12 04:25:07;;;;;;;48.63;44.30;;;;;;;16.30;100.00;101058.28;5081137;28;20053;-78
2021/06/12 04:27:33;;;;;;;49.33;45.03;;;;;;;16.85;100.00;101068.53;5083388;28;20059;-79
2021/06/12 04:30:00;;;;;;;54.05;50.05;;;;;;;19.73;100.00;101056.03;5082837;28;20043;-79
2021/06/12 04:32:27;;;;;;;41.67;38.47;;;;;;;18.02;100.00;101046.38;5095865;28;20044;-78
2021/06/12 04:34:53;;;;;;;43.58;40.28;;;;;;;16.89;100.00;101058.97;5093230;28;20052;-77
2021/06/12 04:37:19;;;;;;;46.00;42.40;;;;;;;16.66;100.00;101066.00;5090548;28;20427;-78
2021/06/12 04:39:47;;;;;;;47.67;44.13;;;;;;;16.61;100.00;101071.28;5092737;28;20051;-77
2021/06/12 04:42:13;;;;;;;48.72;45.17;;;;;;;16.64;100.00;101064.59;5086274;28;20036;-77
2021/06/12 04:44:42;;;;;;;46.30;42.55;;;;;;;16.57;100.00;101072.78;5084803;28;20114;-78
2021/06/12 04:47:14;;;;;;;45.22;41.33;;;;;;;16.47;100.00;101073.41;5085998;28;20397;-77
2021/06/12 04:49:40;;;;;;;45.00;41.60;;;;;;;16.60;100.00;101076.88;5077829;28;20124;-78
2021/06/12 04:52:07;;;;;;;45.45;41.67;;;;;;;16.58;100.00;101077.13;5090436;28;20456;-79
2021/06/12 04:54:33;;;;;;;49.55;45.50;;;;;;;16.68;100.00;101089.91;5094562;28;20048;-78
2021/06/12 04:57:01;;;;;;;50.35;46.45;;;;;;;16.68;100.00;101080.00;5095727;28;20044;-78
2021/06/12 04:59:27;;;;;;;48.83;44.67;;;;;;;16.79;100.00;101085.59;5089446;28;20403;-77
2021/06/12 05:01:53;;;;;;;48.13;44.10;;;;;;;16.74;100.00;101082.78;5088417;28;20048;-78
2021/06/12 05:04:20;;;;;;;50.35;46.15;;;;;;;16.78;100.00;101082.09;5095418;28;20056;-78
2021/06/12 05:06:52;;;;;;;45.15;41.45;;;;;;;16.88;100.00;101081.47;5091919;28;20055;-79
2021/06/12 05:09:18;;;;;;;48.65;44.53;;;;;;;16.99;100.00;101079.81;5083456;28;20436;-77
2021/06/12 05:11:44;;;;;;;46.92;42.55;;;;;;;16.98;100.00;101084.38;5087367;28;20053;-77
2021/06/12 05:14:12;;;;;;;46.65;42.65;;;;;;;17.01;100.00;101088.44;5089969;28;20056;-78
2021/06/12 05:16:39;;;;;;;46.13;42.55;;;;;;;17.02;100.00;101090.88;5084944;28;20503;-78
2021/06/12 05:19:07;;;;;;;46.50;42.92;;;;;;;17.15;100.00;101079.84;5091381;28;20468;-79
2021/06/12 05:21:37;;;;;;;44.08;40.47;;;;;;;17.18;100.00;101083.91;5089971;28;20060;-78
2021/06/12 05:24:05;;;;;;;46.22;42.63;;;;;;;17.36;100.00;101097.13;5086137;28;20053;-77
2021/06/12 05:26:31;;;;;;;45.45;41.95;;;;;;;17.34;100.00;101090.41;5090796;28;20055;-78
2021/06/12 05:28:59;;;;;;;43.20;39.70;;;;;;;17.31;100.00;101101.63;5083903;28;20041;-78
2021/06/12 05:31:26;;;;;;;43.60;40.10;;;;;;;17.48;100.00;101098.94;5084935;28;20055;-78
2021/06/12 05:33:52;;;;;;;43.90;40.58;;;;;;;17.45;100.00;101097.53;5087966;28;20048;-78
2021/06/12 05:36:19;;;;;;;41.03;37.90;;;;;;;17.55;100.00;101094.22;5092182;28;20048;-79
2021/06/12 05:38:45;;;;;;;44.05;40.88;;;;;;;17.58;100.00;101102.63;5086298;28;20060;-78
2021/06/12 05:41:11;;;;;;;44.72;41.25;;;;;;;17.68;100.00;101095.78;5092855;28;20056;-79
2021/06/12 05:43:38;;;;;;;44.53;41.35;;;;;;;17.75;100.00;101099.13;5099739;28;20044;-79
2021/06/12 05:46:04;;;;;;;39.70;36.97;;;;;;;17.69;100.00;101095.53;5085930;28;20468;-78
2021/06/12 05:48:31;;;;;;;40.20;37.25;;;;;;;17.93;100.00;101100.78;5102336;28;20113;-79
2021/06/12 05:50:59;;;;;;;39.45;36.75;;;;;;;18.26;100.00;101091.84;5102400;28;20048;-79
2021/06/12 05:53:26;;;;;;;37.85;34.90;;;;;;;18.31;100.00;101083.88;5094399;28;20063;-78
2021/06/12 05:55:53;;;;;;;37.70;35.13;;;;;;;18.43;100.00;101083.75;5090385;28;20119;-78
2021/06/12 05:58:20;;;;;;;39.08;36.42;;;;;;;18.44;100.00;101085.38;5082372;28;20048;-77
2021/06/12 06:00:46;;;;;;;35.28;32.83;;;;;;;18.66;100.00;101080.81;5094732;28;20035;-78
2021/06/12 06:03:12;;;;;;;34.90;32.40;;;;;;;18.57;100.00;101074.22;5094832;28;20472;-78
2021/06/12 06:05:41;;;;;;;36.90;34.30;;;;;;;18.86;100.00;101068.69;5094832;28;20400;-78
2021/06/12 06:08:07;;;;;;;36.65;34.10;;;;;;;19.14;100.00;101073.81;5084893;28;20071;-77
2021/06/12 06:10:33;;;;;;;38.65;35.88;;;;;;;19.21;100.00;101069.06;5087206;28;20051;-78
2021/06/12 06:13:01;;;;;;;34.83;32.33;;;;;;;19.29;100.00;101067.78;5091738;28;20051;-77
2021/06/12 06:15:28;;;;;;;32.65;30.25;;;;;;;19.35;100.00;101071.34;5092726;28;20053;-78
2021/06/12 06:17:54;;;;;;;33.00;30.55;;;;;;;19.50;100.00;101070.66;5091425;28;20056;-78
2021/06/12 06:20:23;;;;;;;32.15;29.60;;;;;;;19.50;100.00;101074.16;5082242;28;20041;-78
2021/06/12 06:22:50;;;;;;;30.88;28.77;;;;;;;19.69;100.00;101069.22;5090937;28;20052;-77
2021/06/12 06:25:17;;;;;;;30.80;28.65;;;;;;;19.68;100.00;101079.19;5084038;28;20492;-77
2021/06/12 06:27:43;;;;;;;32.75;30.40;;;;;;;20.02;100.00;101076.19;5088638;28;20048;-79
2021/06/12 06:30:12;;;;;;;31.77;29.40;;;;;;;19.52;100.00;101073.91;5095291;28;20044;-77
2021/06/12 06:32:38;;;;;;;33.80;31.58;;;;;;;19.52;100.00;101074.72;5090012;28;20393;-77
2021/06/12 06:35:05;;;;;;;33.50;31.10;;;;;;;19.75;100.00;101078.97;5099573;28;20051;-78
2021/06/12 06:37:32;;;;;;;32.75;30.65;;;;;;;19.75;100.00;101078.16;5092074;28;20055;-79
2021/06/12 06:39:59;;;;;;;36.08;33.40;;;;;;;19.53;100.00;101068.25;5096340;28;20385;-81
2021/06/12 06:42:26;;;;;;;33.45;31.15;;;;;;;19.52;100.00;101071.22;5092368;28;20048;-79
2021/06/12 06:44:52;;;;;;;31.95;29.65;;;;;;;19.73;100.00;101064.13;5093311;28;20048;-80
2021/06/12 06:47:18;;;;;;;32.95;30.65;;;;;;;19.82;100.00;101065.28;5098184;28;20048;-78
2021/06/12 06:49:45;;;;;;;34.60;31.80;;;;;;;20.10;100.00;101066.81;5103141;22;20051;-89
2021/06/12 06:52:11;;;;;;;35.00;32.60;;;;;;;19.93;100.00;101063.44;5086737;28;20055;-89
2021/06/12 06:54:37;;;;;;;37.47;34.60;;;;;;;20.27;100.00;101069.31;5085892;28;20045;-89
2021/06/12 06:57:06;;;;;;;36.47;34.17;;;;;;;20.40;100.00;101062.66;5085108;28;20059;-89
2021/06/12 06:59:33;;;;;;;32.90;30.50;;;;;;;20.31;100.00;101065.84;5082665;28;20044;-89
2021/06/12 07:02:02;;;;;;;29.50;27.60;;;;;;;20.31;100.00;101063.13;5084037;28;20048;-90
2021/06/12 07:04:28;;;;;;;32.60;30.40;;;;;;;20.17;100.00;101061.97;5089966;28;20102;-88
2021/06/12 07:06:54;;;;;;;32.30;30.02;;;;;;;20.45;100.00;101071.56;5082197;28;20045;-89
2021/06/12 07:09:21;;;;;;;31.10;29.08;;;;;;;20.29;100.00;101072.56;5075326;28;20498;-90
2021/06/12 07:11:47;;;;;;;32.53;30.42;;;;;;;19.96;100.00;101073.72;5083781;28;20058;-89
2021/06/12 07:14:15;;;;;;;31.23;29.20;;;;;;;20.57;100.00;101071.38;5083141;28;20052;-90
2021/06/12 07:16:41;;;;;;;32.67;30.38;;;;;;;20.48;100.00;101068.31;5079885;28;20445;-89
2021/06/12 07:19:07;;;;;;;33.67;31.58;;;;;;;20.62;100.00;101073.28;5077264;28;20052;-90
2021/06/12 07:21:34;;;;;;;33.50;31.40;;;;;;;20.78;100.00;101067.66;5081521;28;20052;-89
2021/06/12 07:24:00;;;;;;;31.38;29.27;;;;;;;20.73;100.00;101066.84;5089591;28;20098;-88
2021/06/12 07:26:27;;;;;;;29.98;28.08;;;;;;;20.50;100.00;101065.38;5086299;28;20097;-88
2021/06/12 07:28:53;;;;;;;30.10;28.10;;;;;;;20.63;100.00;101072.19;5076846;28;20048;-89
2021/06/12 07:31:21;;;;;;;29.48;27.58;;;;;;;20.72;100.00;101065.22;5086715;28;20070;-90
2021/06/12 07:33:47;;;;;;;30.02;27.88;;;;;;;20.27;100.00;101064.75;5091692;28;20051;-89
2021/06/12 07:36:13;;;;;;;33.40;30.88;;;;;;;20.49;100.00;101064.56;5089249;28;20059;-90
2021/06/12 07:38:40;;;;;;;31.75;29.55;;;;;;;20.74;100.00;101063.88;5084875;28;20052;-90
2021/06/12 07:41:06;;;;;;;32.15;29.88;;;;;;;20.79;100.00;101066.59;5083515;28;20113;-89
2021/06/12 07:43:32;;;;;;;30.83;28.58;;;;;;;20.61;100.00;101061.69;5082338;28;20040;-90
2021/06/12 07:45:59;;;;;;;33.65;31.20;;;;;;;21.00;100.00;101072.06;5086979;28;20105;-90
2021/06/12 07:48:26;;;;;;;36.40;33.20;;;;;;;20.99;100.00;101065.00;5080024;28;20041;-89
2021/06/12 07:50:53;;;;;;;33.08;30.73;;;;;;;20.65;100.00;101067.34;5083301;28;20048;-89
2021/06/12 07:53:19;;;;;;;33.60;31.27;;;;;;;20.66;100.00;101061.69;5085334;28;20051;-89
2021/06/12 07:55:45;;;;;;;34.47;31.88;;;;;;;20.67;100.00;101060.63;5077542;28;20448;-89
2021/06/12 07:58:12;;;;;;;32.38;30.00;;;;;;;20.81;100.00;101060.91;5089664;28;20040;-89
2021/06/12 08:00:38;;;;;;;31.70;29.13;;;;;;;20.96;100.00;101066.34;5081227;28;20060;-88
2021/06/12 08:03:05;;;;;;;31.55;29.15;;;;;;;21.25;100.00;101061.28;5081255;28;20076;-89
2021/06/12 08:05:32;;;;;;;30.73;28.33;;;;;;;21.24;100.00;101067.78;5078212;28;20094;-89
2021/06/12 08:07:59;;;;;;;31.33;29.13;;;;;;;21.02;100.00;101065.28;5081333;28;20094;-89
2021/06/12 08:10:25;;;;;;;32.00;29.80;;;;;;;21.02;100.00;101067.97;5080854;28;20507;-89
2021/06/12 08:12:52;;;;;;;32.25;29.58;;;;;;;20.55;100.00;101060.03;5071198;28;20057;-90
2021/06/12 08:15:19;;;;;;;31.38;29.17;;;;;;;20.69;100.00;101063.84;5081000;28;20056;-87
2021/06/12 08:17:45;;;;;;;32.30;29.75;;;;;;;20.94;100.00;101065.03;5081844;28;20048;-88
2021/06/12 08:20:12;;;;;;;32.13;29.83;;;;;;;21.11;100.00;101072.88;5073688;28;20433;-90
2021/06/12 08:22:41;;;;;;;33.00;30.63;;;;;;;21.38;100.00;101059.97;5086146;28;20052;-89
2021/06/12 08:25:09;;;;;;;33.85;31.50;;;;;;;21.50;100.00;101055.09;5079733;28;20044;-90
2021/06/12 08:27:36;;;;;;;34.20;31.95;;;;;;;21.63;100.00;101061.84;5074067;28;20056;-89
2021/06/12 08:30:03;;;;;;;34.25;31.92;;;;;;;21.47;100.00;101063.75;5085545;28;20057;-88
2021/06/12 08:32:30;;;;;;;33.28;30.70;;;;;;;21.47;100.00;101058.34;5090291;28;20047;-90
2021/06/12 08:34:56;;;;;;;33.15;30.95;;;;;;;21.38;100.00;101059.16;5089190;28;20052;-89
2021/06/12 08:37:23;;;;;;;32.33;30.08;;;;;;;21.25;100.00;101061.28;5086353;28;20047;-87
2021/06/12 08:39:52;;;;;;;32.92;30.63;;;;;;;21.17;100.00;101067.19;5070693;28;20060;-90
2021/06/12 08:42:18;;;;;;;33.17;30.88;;;;;;;21.11;100.00;101064.78;5079178;28;20048;-89
2021/06/12 08:44:45;;;;;;;32.97;30.40;;;;;;;21.14;100.00;101062.34;5087340;28;20113;-91
2021/06/12 08:47:12;;;;;;;34.90;32.60;;;;;;;21.02;100.00;101059.06;5078899;28;20044;-90
2021/06/12 08:49:39;;;;;;;34.38;31.85;;;;;;;21.11;100.00;101073.69;5082473;28;20397;-88
2021/06/12 08:52:06;;;;;;;35.25;32.95;;;;;;;21.15;100.00;101076.66;5079318;28;20482;-90
2021/06/12 08:54:33;;;;;;;31.38;29.23;;;;;;;21.20;100.00;101061.25;5085527;28;20044;-90
2021/06/12 08:57:01;;;;;;;32.63;30.42;;;;;;;21.52;100.00;101062.94;5080401;28;20417;-88
2021/06/12 08:59:34;;;;;;;31.95;29.75;;;;;;;21.53;100.00;101053.75;5082677;28;20044;-89
2021/06/12 09:02:00;;;;;;;31.52;29.33;;;;;;;21.71;100.00;101061.31;5085475;28;20502;-89
2021/06/12 09:04:28;;;;;;;33.72;31.23;;;;;;;21.94;100.00;101057.22;5090549;28;20040;-89
2021/06/12 09:07:25;;;;;;;32.63;30.55;;;;;;;21.91;100.00;101051.56;5078902;28;20072;-90
2021/06/12 09:09:53;;;;;;;32.55;30.27;;;;;;;21.79;100.00;101061.84;5050257;28;20501;-90
2021/06/12 09:12:21;;;;;;;31.92;29.63;;;;;;;21.62;100.00;101062.13;5091895;28;20048;-91
2021/06/12 09:15:11;;;;;;;29.73;27.63;;;;;;;21.89;100.00;101062.63;5089254;28;20516;-89
2021/06/12 09:17:39;;;;;;;28.58;26.70;;;;;;;21.82;100.00;101059.41;5088877;28;20052;-90
2021/06/12 09:20:08;;;;;;;30.00;27.73;;;;;;;22.66;100.00;101058.88;5077702;28;20101;-90
2021/06/12 09:22:35;;;;;;;29.63;27.52;;;;;;;23.03;100.00;101047.63;5085821;28;20174;-89
2021/06/12 09:25:02;;;;;;;31.00;28.67;;;;;;;23.10;100.00;101050.81;5094118;28;20052;-90
2021/06/12 09:30:21;;;;;;;30.92;28.70;;;;;;;22.94;100.00;101055.53;5087950;28;20044;-89
2021/06/12 09:32:48;;;;;;;31.70;29.42;;;;;;;22.98;100.00;101048.44;5095571;28;20058;-90
2021/06/12 09:35:16;;;;;;;29.80;27.90;;;;;;;22.97;100.00;101046.84;5094497;28;20054;-90
2021/06/12 09:37:45;;;;;;;31.00;28.90;;;;;;;22.81;100.00;101051.50;5093975;28;20048;-90
2021/06/12 09:40:14;;;;;;;29.90;27.80;;;;;;;23.32;100.00;101043.03;5089746;28;20079;-90
2021/06/12 09:42:48;;;;;;;29.63;27.63;;;;;;;23.59;100.00;101043.66;5087794;28;20052;-89
2021/06/12 09:45:24;;;;;;;29.90;27.80;;;;;;;23.74;100.00;101043.53;5094543;28;20055;-90
2021/06/12 09:47:51;;;;;;;29.58;27.40;;;;;;;23.39;100.00;101033.78;5092946;28;20181;-91
2021/06/12 09:50:22;;;;;;;29.60;27.50;;;;;;;24.31;100.00;101043.72;5089074;28;20402;-88
2021/06/12 09:52:50;;;;;;;28.90;26.83;;;;;;;24.37;100.00;101037.94;5083121;28;20055;-91
2021/06/12 09:55:26;;;;;;;27.98;26.23;;;;;;;24.09;100.00;101036.13;5085563;28;20059;-89
2021/06/12 09:57:58;;;;;;;31.05;28.92;;;;;;;24.76;100.00;101031.50;5089925;28;20059;-89
2021/06/12 10:00:38;;;;;;;29.40;27.50;;;;;;;24.44;100.00;101034.91;5096897;28;20055;-90
2021/06/12 10:03:16;;;;;;;32.13;30.02;;;;;;;25.26;100.00;101025.59;5088967;28;20134;-91
2021/06/12 10:06:12;;;;;;;33.22;31.23;;;;;;;24.80;100.00;101024.34;5087101;28;20425;-90
2021/06/12 10:08:40;;;;;;;30.08;28.38;;;;;;;25.07;100.00;101025.59;5082758;28;20147;-90
2021/06/12 10:11:12;;;;;;;28.98;27.00;;;;;;;24.61;100.00;101015.41;5085013;28;20055;-89
2021/06/12 10:13:46;;;;;;;26.60;25.10;;;;;;;25.06;100.00;101013.91;5087923;28;20044;-90
2021/06/12 10:16:18;;;;;;;29.73;27.75;;;;;;;24.79;100.00;101017.31;5087981;28;20097;-91
2021/06/12 10:18:48;;;;;;;27.95;26.23;;;;;;;24.75;100.00;101004.59;5076942;28;20063;-90
2021/06/12 10:21:16;;;;;;;26.80;25.20;;;;;;;24.72;100.00;101000.59;5093508;28;20111;-90
2021/06/12 10:23:49;;;;;;;26.17;24.50;;;;;;;24.95;100.00;101004.31;5087728;28;20047;-89
2021/06/12 10:26:18;;;;;;;28.05;26.38;;;;;;;24.60;100.00;100997.47;5085018;28;20048;-90
2021/06/12 10:28:45;;;;;;;28.20;26.38;;;;;;;24.12;100.00;100994.84;5082716;28;20056;-90
2021/06/12 10:31:14;;;;;;;26.88;25.30;;;;;;;23.87;100.00;100990.50;5091315;28;20044;-90
2021/06/12 10:33:43;;;;;;;27.17;25.48;;;;;;;23.77;100.00;100992.25;5090656;28;20109;-90
2021/06/12 10:36:14;;;;;;;26.38;24.77;;;;;;;23.82;100.00;100980.53;5083314;28;20476;-90
2021/06/12 10:38:40;;;;;;;24.95;23.45;;;;;;;24.13;100.00;100980.19;5087158;28;20210;-91
2021/06/12 10:41:25;;;;;;;25.95;24.40;;;;;;;24.02;100.00;100976.75;5083764;28;20068;-90
2021/06/12 10:43:54;;;;;;;26.35;24.85;;;;;;;23.93;100.00;100967.66;5088930;28;20052;-90
2021/06/12 10:46:24;;;;;;;26.75;25.25;;;;;;;24.07;100.00;100976.72;5087153;28;20052;-90
2021/06/12 10:48:53;;;;;;;27.48;25.77;;;;;;;24.13;100.00;100961.97;5092422;28;20063;-89
2021/06/12 10:51:45;;;;;;;26.98;25.48;;;;;;;24.32;100.00;100962.00;5086816;28;20057;-90
2021/06/12 10:54:23;;;;;;;27.48;25.98;;;;;;;25.21;100.00;100963.97;5090153;28;20052;-90
2021/06/12 10:56:55;;;;;;;26.55;24.85;;;;;;;25.13;100.00;100960.03;5078861;28;20045;-89
2021/06/12 10:59:46;;;;;;;27.08;25.42;;;;;;;25.27;100.00;100968.22;5077292;28;20064;-91
2021/06/12 11:02:18;;;;;;;26.77;25.17;;;;;;;25.36;100.00;100957.47;5087917;28;20509;-90
2021/06/12 11:04:51;;;;;;;24.67;23.10;;;;;;;25.02;100.00;100960.44;5083935;28;20048;-90
2021/06/12 11:07:26;;;;;;;27.40;25.85;;;;;;;24.88;100.00;100952.28;5086703;28;20293;-89
2021/06/12 11:09:53;;;;;;;27.38;25.77;;;;;;;25.23;100.00;100944.63;5085480;28;20048;-91
2021/06/12 11:12:36;;;;;;;25.73;24.23;;;;;;;24.88;100.00;100949.56;5092928;28;20040;-89
2021/06/12 11:15:08;;;;;;;26.35;24.73;;;;;;;25.11;100.00;100936.94;5086866;28;20048;-90
2021/06/12 11:17:35;;;;;;;26.75;25.15;;;;;;;25.35;100.00;100937.63;5078580;28;20229;-88
2021/06/12 11:20:26;;;;;;;27.40;25.90;;;;;;;25.51;100.00;100929.19;5085840;28;20049;-89
2021/06/12 11:22:54;;;;;;;28.40;26.70;;;;;;;25.08;100.00;100930.22;5082940;28;20048;-90
2021/06/12 11:25:54;;;;;;;27.98;26.38;;;;;;;25.47;100.00;100936.31;5085786;28;20056;-90